Acme, Pennsylvania
Current Conditions -  °F | °C
As of 1:35 AM on Monday 24 Nov 2014 (Local Time) from KLBE Reporting Station
Overcast Overcast  
Wind Chill: 57°   Ceiling: 6000
Heat Index: 57°   Visibility: 10mi
Dew Point: 52°   Wind: 21mph
Humidity: 82%   Direction: 130°SE
Pressure: 29.49"   Gusts: 37mph
Location:  40.13°N, 79.43°W
Report Text: KLBE 240635Z AUTO 13018G32KT 10SM OVC060 14/11 A2949 RMK AO2
Loading
Personal Weather Stations






























Interactive Weather Map New forecast layout! Learn more

10-Day Weather Forecast

Advertisements
Track Severe Weather on mobile